Date,TemperatureHighF,TemperatureAvgF,TemperatureLowF,DewpointHighF,DewpointAvgF,DewpointLowF,HumidityHigh,HumidityAvg,HumidityLow,PressureMaxIn,PressureMinIn,WindSpeedMaxMPH,WindSpeedAvgMPH,GustSpeedMaxMPH,PrecipitationSumIn
2013-8-1,85.5,76.3,72.9,79.5,74.2,71.6,99,93,77,30.03,29.94,6,1,11,0.73
2013-8-2,91.8,79.6,70.9,78.8,73.9,70.0,99,84,57,30.03,29.92,4,0,7,0.00
2013-8-3,93.4,81.6,72.9,79.9,75.6,71.6,98,83,59,30.03,29.95,8,1,15,0.00
2013-8-4,92.8,82.2,74.8,79.3,76.3,73.4,97,83,58,30.02,29.93,5,1,10,0.00
2013-8-5,93.6,81.9,75.2,80.2,76.3,73.8,97,84,58,29.99,29.90,6,1,10,0.00
2013-8-6,89.8,80.7,75.4,80.6,76.4,72.5,98,87,68,30.00,29.90,15,1,15,0.00
2013-8-7,90.7,80.6,73.9,77.9,74.5,71.6,98,83,58,30.02,29.94,6,1,9,0.00
2013-8-8,89.6,80.1,72.1,79.7,75.0,70.9,98,85,65,30.05,29.96,4,0,6,0.00
2013-8-9,91.8,81.3,72.1,78.6,74.8,70.2,99,82,55,30.10,29.98,5,1,7,0.00
2013-8-10,93.0,81.7,72.1,77.9,74.0,70.9,99,79,51,30.14,30.04,5,1,10,0.00
2013-8-11,93.9,82.8,74.5,79.7,76.0,73.0,98,82,53,30.16,30.04,5,0,5,0.00
2013-8-12,96.4,83.4,73.9,80.1,75.6,72.5,98,79,50,30.11,29.97,5,1,9,0.01
2013-8-13,95.0,83.6,73.8,77.7,74.7,71.6,97,77,50,30.02,29.87,8,1,10,0.00
2013-8-14,94.8,80.8,72.7,78.1,74.6,69.4,97,83,53,30.00,29.84,10,1,15,0.13
2013-8-15,94.1,77.7,71.8,79.0,73.1,70.5,98,87,49,30.03,29.89,6,1,13,0.10
2013-8-16,89.8,77.3,71.4,77.2,73.5,70.7,99,89,64,30.05,29.92,6,1,9,0.04
2013-8-17,87.4,78.1,71.8,78.6,74.7,69.8,98,90,72,30.14,30.00,7,0,17,0.98
2013-8-18,90.7,79.3,70.9,79.7,75.2,70.3,99,88,64,30.13,30.03,6,1,10,0.99
2013-8-19,91.2,79.5,72.5,79.9,75.5,70.7,99,88,61,30.11,29.97,5,1,10,0.11
2013-8-20,89.2,77.0,70.5,79.2,74.1,69.8,98,91,67,30.13,30.02,4,0,7,0.22
2013-8-21,85.3,77.0,71.2,79.3,74.8,70.3,99,93,79,30.19,30.09,6,0,10,0.23
2013-8-22,87.4,78.0,73.0,78.8,74.4,71.8,99,89,66,30.14,30.01,5,0,7,0.00
2013-8-23,87.3,75.5,70.2,78.1,73.3,69.3,99,93,70,30.06,30.00,4,0,7,0.27
2013-8-24,82.9,76.1,71.6,77.2,73.6,71.1,98,92,77,30.17,30.01,3,0,5,0.06
2013-8-25,86.4,76.5,69.4,76.3,71.6,66.2,98,86,65,30.22,30.15,7,1,14,0.60
2013-8-26,81.9,74.0,68.0,77.2,71.7,66.7,98,92,81,30.22,30.10,6,1,12,0.30
2013-8-27,88.3,77.6,71.2,75.4,71.5,66.9,98,83,52,30.12,30.00,4,0,7,0.00
2013-8-28,90.9,77.7,68.0,75.7,70.7,66.7,98,81,47,30.05,29.95,5,0,7,0.00
2013-8-29,93.0,79.7,69.3,78.3,72.6,68.0,98,81,53,30.01,29.89,7,1,10,0.00
2013-8-30,92.1,80.4,72.9,80.1,74.7,71.4,97,84,57,29.96,29.86,5,1,7,0.04
2013-8-31,91.0,77.9,69.8,79.5,73.8,68.9,99,88,61,29.96,29.86,9,1,13,0.04